»·PEaware :: N881W KSNA-KSAN

N881W :: KSNA-KSAN

FLIGHT INFORMATION

Flight Status: Arrived
Operator: Privately registered:
United States
More flights under this callsign
Pilot: Andrew W. (18069)
Aircraft: CESSNA 172 SKYHAWK
(C172)
More flights by this aircraft type
Origin: KSNA John Wayne-Orange Co
United States
Destination: KSAN San Diego Intl-Lindbergh
United States
More flights between these airports :: More routes between these airports
Route: +V23 MZB
File this flight plan on PilotEdge
Remarks:
Altitude:
(Current/Filed)
5,000ft
Speed:
(Current/Filed)
120kts
Departed: 25-Mar-20 03:25 PM
Arrived: 25-Mar-20 04:14 PM
Distance/Time
Traveled:
66nm/0:49
Distance/Time
To Go:
Arrived

Flight Plot

Page will automatically refresh every two minutes.


Map Options




Map Legend


Flown Route
Filed Route
Departure Airport
Arrival Airport
Navaid (VOR, NDB)
Fix

Horizontal Profiles

Position Reports

Time Latitude Longitude Heading Altitude Ground
Speed
25-Mar-20 15:04 33.671841 -117.867133 206 60ft 0kts
25-Mar-20 15:05 33.671841 -117.867133 206 60ft 0kts
25-Mar-20 15:06 33.671840 -117.867133 206 60ft 0kts
25-Mar-20 15:07 33.671840 -117.867133 206 60ft 0kts
25-Mar-20 15:08 33.671840 -117.867133 206 60ft 0kts
25-Mar-20 15:09 33.671840 -117.867133 206 60ft 0kts
25-Mar-20 15:10 33.671840 -117.867133 206 60ft 0kts
25-Mar-20 15:11 33.671851 -117.867608 296 60ft 0kts
25-Mar-20 15:12 33.671880 -117.867680 294 60ft 0kts
25-Mar-20 15:13 33.671880 -117.867680 294 60ft 0kts
25-Mar-20 15:14 33.671880 -117.867680 294 60ft 0kts
25-Mar-20 15:15 33.671880 -117.867680 294 60ft 0kts
25-Mar-20 15:16 33.671880 -117.867680 294 60ft 0kts
25-Mar-20 15:17 33.672425 -117.867921 27 60ft 10kts
25-Mar-20 15:18 33.675540 -117.866170 29 60ft 17kts
25-Mar-20 15:19 33.679077 -117.863924 27 60ft 20kts
25-Mar-20 15:20 33.679980 -117.863661 299 60ft 0kts
25-Mar-20 15:21 33.679980 -117.863661 299 60ft 0kts
25-Mar-20 15:23 33.679981 -117.863662 299 60ft 0kts
25-Mar-20 15:24 33.680022 -117.863752 298 60ft 5kts
25-Mar-20 15:25 33.667049 -117.870693 187 548ft 83kts
25-Mar-20 15:26 33.643605 -117.873865 186 1584ft 86kts
25-Mar-20 15:27 33.619667 -117.877043 185 2561ft 87kts
25-Mar-20 15:28 33.595343 -117.880267 185 3474ft 88kts
25-Mar-20 15:29 33.570685 -117.883539 185 4326ft 90kts
25-Mar-20 15:30 33.546650 -117.880854 123 4998ft 103kts
25-Mar-20 15:31 33.533688 -117.843612 111 5000ft 127kts
25-Mar-20 15:32 33.520555 -117.803965 111 4999ft 127kts
25-Mar-20 15:33 33.507464 -117.764429 111 4999ft 127kts
25-Mar-20 15:34 33.494419 -117.725014 111 4999ft 127kts
25-Mar-20 15:35 33.474275 -117.690760 134 4999ft 127kts
25-Mar-20 15:36 33.449060 -117.661000 135 4999ft 127kts
25-Mar-20 15:37 33.423695 -117.631257 135 4999ft 127kts
25-Mar-20 15:38 33.398335 -117.601580 135 4999ft 127kts
25-Mar-20 15:39 33.373015 -117.571983 135 4999ft 127kts
25-Mar-20 15:40 33.347608 -117.542312 135 4999ft 127kts
25-Mar-20 15:40 33.326483 -117.517661 135 4999ft 127kts
25-Mar-20 15:42 33.296862 -117.483125 135 4999ft 127kts
25-Mar-20 15:43 33.271454 -117.453529 135 4999ft 127kts
25-Mar-20 15:43 33.250274 -117.428879 135 4999ft 127kts
25-Mar-20 15:44 33.219384 -117.409327 158 4999ft 127kts
25-Mar-20 15:46 33.180514 -117.392423 159 4999ft 127kts
25-Mar-20 15:46 33.152620 -117.380615 160 4999ft 127kts
25-Mar-20 15:47 33.119159 -117.366534 160 4999ft 127kts
25-Mar-20 15:48 33.085719 -117.352475 160 4999ft 127kts
25-Mar-20 15:49 33.052283 -117.338431 160 4999ft 127kts
25-Mar-20 15:50 33.018837 -117.324394 160 4999ft 127kts
25-Mar-20 15:51 32.985351 -117.310350 160 4999ft 127kts
25-Mar-20 15:52 32.951826 -117.296301 160 4999ft 127kts
25-Mar-20 15:53 32.918393 -117.282303 160 4999ft 127kts
25-Mar-20 15:54 32.884859 -117.268272 160 4999ft 127kts
25-Mar-20 15:55 32.851428 -117.254296 160 4999ft 127kts
25-Mar-20 15:56 32.817870 -117.240279 160 4999ft 127kts
25-Mar-20 15:57 32.784405 -117.226255 157 4999ft 127kts
25-Mar-20 15:58 32.780843 -117.187914 86 4999ft 127kts
25-Mar-20 15:59 32.780776 -117.145721 91 4999ft 127kts
25-Mar-20 16:00 32.779858 -117.105193 91 5200ft 123kts
25-Mar-20 16:01 32.778128 -117.063619 102 5199ft 127kts
25-Mar-20 16:02 32.768833 -117.023055 106 5199ft 127kts
25-Mar-20 16:03 32.758934 -116.982636 108 5199ft 127kts
25-Mar-20 16:04 32.732227 -116.954727 168 4699ft 130kts
25-Mar-20 16:05 32.700287 -116.965197 221 3895ft 118kts
25-Mar-20 16:06 32.688201 -116.999719 272 3639ft 115kts
25-Mar-20 16:07 32.696577 -117.037602 286 2957ft 122kts
25-Mar-20 16:08 32.705128 -117.072484 286 2223ft 93kts
25-Mar-20 16:09 32.712203 -117.101635 286 1630ft 92kts
25-Mar-20 16:10 32.719238 -117.130602 286 1055ft 91kts
25-Mar-20 16:11 32.726152 -117.159047 285 504ft 80kts
25-Mar-20 16:12 32.731639 -117.181689 286 59ft 68kts
25-Mar-20 16:13 32.734626 -117.190779 32 21ft 0kts
25-Mar-20 16:14 32.734859 -117.190420 79 21ft 13kts
25-Mar-20 16:15 32.733250 -117.183663 106 21ft 24kts
25-Mar-20 16:16 32.732506 -117.178391 38 21ft 1kts

Navigation Log

Ident Type
Flight plan parsing failed, navigation log unavailable